sensor_id;sensor_type;location;lat;lon;timestamp;P1;durP1;ratioP1;P2;durP2;ratioP2
14663;SDS011;7419;52.184;5.944;2023-04-07T00:03:07;11.15;;;7.01;;
14663;SDS011;7419;52.184;5.944;2023-04-07T00:03:07;11.89;;;7.16;;
14663;SDS011;7419;52.184;5.944;2023-04-07T00:03:07;10.42;;;6.47;;
14663;SDS011;7419;52.184;5.944;2023-04-07T00:03:07;9.47;;;6.24;;
14663;SDS011;7419;52.184;5.944;2023-04-07T00:04:06;12.71;;;6.50;;
14663;SDS011;7419;52.184;5.944;2023-04-07T00:05:06;10.45;;;6.81;;
14663;SDS011;7419;52.184;5.944;2023-04-07T00:06:06;10.07;;;6.99;;
14663;SDS011;7419;52.184;5.944;2023-04-07T00:07:06;11.06;;;6.54;;
14663;SDS011;7419;52.184;5.944;2023-04-07T00:08:06;10.39;;;6.52;;
14663;SDS011;7419;52.184;5.944;2023-04-07T00:09:06;12.25;;;6.77;;
14663;SDS011;7419;52.184;5.944;2023-04-07T00:10:07;11.00;;;7.02;;
14663;SDS011;7419;52.184;5.944;2023-04-07T00:11:06;15.48;;;7.04;;
14663;SDS011;7419;52.184;5.944;2023-04-07T00:12:06;12.93;;;6.68;;
14663;SDS011;7419;52.184;5.944;2023-04-07T00:13:06;10.49;;;7.03;;
14663;SDS011;7419;52.184;5.944;2023-04-07T00:14:07;14.53;;;7.53;;
14663;SDS011;7419;52.184;5.944;2023-04-07T00:15:07;10.29;;;6.89;;
14663;SDS011;7419;52.184;5.944;2023-04-07T00:16:07;11.15;;;6.87;;
14663;SDS011;7419;52.184;5.944;2023-04-07T00:17:07;11.35;;;6.77;;
14663;SDS011;7419;52.184;5.944;2023-04-07T00:18:07;10.46;;;5.81;;
14663;SDS011;7419;52.184;5.944;2023-04-07T00:19:07;11.09;;;6.76;;
14663;SDS011;7419;52.184;5.944;2023-04-07T00:20:07;12.71;;;7.87;;
14663;SDS011;7419;52.184;5.944;2023-04-07T00:21:07;12.32;;;7.06;;
14663;SDS011;7419;52.184;5.944;2023-04-07T00:22:07;11.87;;;6.78;;
14663;SDS011;7419;52.184;5.944;2023-04-07T00:23:07;15.32;;;6.88;;
14663;SDS011;7419;52.184;5.944;2023-04-07T00:24:07;13.50;;;7.35;;
14663;SDS011;7419;52.184;5.944;2023-04-07T00:25:07;11.74;;;7.29;;
14663;SDS011;7419;52.184;5.944;2023-04-07T00:26:07;15.19;;;7.35;;
14663;SDS011;7419;52.184;5.944;2023-04-07T00:27:07;13.59;;;7.63;;
14663;SDS011;7419;52.184;5.944;2023-04-07T00:28:07;12.22;;;6.60;;
14663;SDS011;7419;52.184;5.944;2023-04-07T00:29:07;12.57;;;7.32;;
14663;SDS011;7419;52.184;5.944;2023-04-07T00:30:08;13.40;;;6.53;;
14663;SDS011;7419;52.184;5.944;2023-04-07T00:31:08;12.97;;;7.02;;
14663;SDS011;7419;52.184;5.944;2023-04-07T00:32:08;14.35;;;7.08;;
14663;SDS011;7419;52.184;5.944;2023-04-07T00:33:08;10.79;;;5.96;;
14663;SDS011;7419;52.184;5.944;2023-04-07T00:34:08;12.69;;;6.68;;
14663;SDS011;7419;52.184;5.944;2023-04-07T00:35:08;10.99;;;6.39;;
14663;SDS011;7419;52.184;5.944;2023-04-07T00:36:08;9.30;;;5.82;;
14663;SDS011;7419;52.184;5.944;2023-04-07T00:37:08;12.83;;;6.47;;
14663;SDS011;7419;52.184;5.944;2023-04-07T00:38:08;10.68;;;6.19;;
14663;SDS011;7419;52.184;5.944;2023-04-07T00:39:08;8.54;;;5.41;;
14663;SDS011;7419;52.184;5.944;2023-04-07T00:40:08;12.81;;;5.81;;
14663;SDS011;7419;52.184;5.944;2023-04-07T00:41:08;13.33;;;6.00;;
14663;SDS011;7419;52.184;5.944;2023-04-07T00:42:08;8.31;;;5.78;;
14663;SDS011;7419;52.184;5.944;2023-04-07T00:43:08;7.58;;;5.38;;
14663;SDS011;7419;52.184;5.944;2023-04-07T00:44:08;8.79;;;5.24;;
14663;SDS011;7419;52.184;5.944;2023-04-07T00:45:09;9.28;;;5.56;;
14663;SDS011;7419;52.184;5.944;2023-04-07T00:46:08;8.79;;;4.57;;
14663;SDS011;7419;52.184;5.944;2023-04-07T00:47:09;8.25;;;4.86;;
14663;SDS011;7419;52.184;5.944;2023-04-07T00:48:09;10.23;;;5.61;;
14663;SDS011;7419;52.184;5.944;2023-04-07T00:49:09;7.87;;;4.58;;
14663;SDS011;7419;52.184;5.944;2023-04-07T00:50:09;6.65;;;4.74;;
14663;SDS011;7419;52.184;5.944;2023-04-07T00:51:09;7.88;;;4.75;;
14663;SDS011;7419;52.184;5.944;2023-04-07T00:52:09;9.90;;;4.70;;
14663;SDS011;7419;52.184;5.944;2023-04-07T00:53:09;8.31;;;4.78;;
14663;SDS011;7419;52.184;5.944;2023-04-07T00:54:09;7.12;;;4.19;;
14663;SDS011;7419;52.184;5.944;2023-04-07T00:55:09;7.64;;;4.42;;
14663;SDS011;7419;52.184;5.944;2023-04-07T00:56:09;8.65;;;4.30;;
14663;SDS011;7419;52.184;5.944;2023-04-07T00:57:09;7.87;;;4.74;;
14663;SDS011;7419;52.184;5.944;2023-04-07T00:58:09;6.57;;;4.25;;
14663;SDS011;7419;52.184;5.944;2023-04-07T00:59:09;8.30;;;4.58;;
14663;SDS011;7419;52.184;5.944;2023-04-07T01:00:10;6.49;;;4.10;;
14663;SDS011;7419;52.184;5.944;2023-04-07T01:01:11;7.43;;;3.79;;
14663;SDS011;7419;52.184;5.944;2023-04-07T01:02:14;5.39;;;3.57;;
14663;SDS011;7419;52.184;5.944;2023-04-07T01:03:12;7.54;;;3.51;;
14663;SDS011;7419;52.184;5.944;2023-04-07T01:04:11;5.56;;;4.01;;
14663;SDS011;7419;52.184;5.944;2023-04-07T01:05:12;8.41;;;4.07;;
14663;SDS011;7419;52.184;5.944;2023-04-07T01:06:10;6.44;;;4.36;;
14663;SDS011;7419;52.184;5.944;2023-04-07T01:07:13;5.86;;;3.61;;
14663;SDS011;7419;52.184;5.944;2023-04-07T01:08:11;5.24;;;4.04;;
14663;SDS011;7419;52.184;5.944;2023-04-07T01:09:12;7.43;;;3.90;;
14663;SDS011;7419;52.184;5.944;2023-04-07T01:10:11;6.87;;;4.16;;
14663;SDS011;7419;52.184;5.944;2023-04-07T01:11:12;5.94;;;3.85;;
14663;SDS011;7419;52.184;5.944;2023-04-07T01:12:11;7.94;;;3.79;;
14663;SDS011;7419;52.184;5.944;2023-04-07T01:13:12;5.26;;;3.62;;
14663;SDS011;7419;52.184;5.944;2023-04-07T01:14:10;8.05;;;3.35;;
14663;SDS011;7419;52.184;5.944;2023-04-07T01:15:11;8.11;;;3.89;;
14663;SDS011;7419;52.184;5.944;2023-04-07T01:16:11;6.08;;;3.43;;
14663;SDS011;7419;52.184;5.944;2023-04-07T01:17:10;5.27;;;2.91;;
14663;SDS011;7419;52.184;5.944;2023-04-07T01:18:12;5.76;;;2.94;;
14663;SDS011;7419;52.184;5.944;2023-04-07T01:19:12;4.37;;;2.71;;
14663;SDS011;7419;52.184;5.944;2023-04-07T01:20:11;5.05;;;2.81;;
14663;SDS011;7419;52.184;5.944;2023-04-07T01:21:13;2.65;;;2.27;;
14663;SDS011;7419;52.184;5.944;2023-04-07T01:22:12;4.54;;;2.57;;
14663;SDS011;7419;52.184;5.944;2023-04-07T01:23:12;6.32;;;2.77;;
14663;SDS011;7419;52.184;5.944;2023-04-07T01:24:17;3.88;;;1.79;;
14663;SDS011;7419;52.184;5.944;2023-04-07T01:25:17;2.88;;;1.79;;
14663;SDS011;7419;52.184;5.944;2023-04-07T01:26:16;4.65;;;2.21;;
14663;SDS011;7419;52.184;5.944;2023-04-07T01:27:13;2.76;;;2.19;;
14663;SDS011;7419;52.184;5.944;2023-04-07T01:28:18;4.54;;;2.43;;
14663;SDS011;7419;52.184;5.944;2023-04-07T01:30:12;3.67;;;2.19;;
14663;SDS011;7419;52.184;5.944;2023-04-07T01:31:11;4.22;;;1.98;;
14663;SDS011;7419;52.184;5.944;2023-04-07T01:32:11;2.54;;;1.93;;
14663;SDS011;7419;52.184;5.944;2023-04-07T01:33:11;1.81;;;1.68;;
14663;SDS011;7419;52.184;5.944;2023-04-07T01:34:11;2.93;;;1.85;;
14663;SDS011;7419;52.184;5.944;2023-04-07T01:35:12;3.40;;;1.52;;
14663;SDS011;7419;52.184;5.944;2023-04-07T01:36:11;2.09;;;1.11;;
14663;SDS011;7419;52.184;5.944;2023-04-07T01:37:11;4.53;;;1.48;;
14663;SDS011;7419;52.184;5.944;2023-04-07T01:38:11;2.76;;;1.67;;
14663;SDS011;7419;52.184;5.944;2023-04-07T01:39:11;1.89;;;1.06;;
14663;SDS011;7419;52.184;5.944;2023-04-07T01:40:11;3.21;;;2.01;;
14663;SDS011;7419;52.184;5.944;2023-04-07T01:41:11;1.90;;;1.63;;
14663;SDS011;7419;52.184;5.944;2023-04-07T01:42:11;3.02;;;1.34;;
14663;SDS011;7419;52.184;5.944;2023-04-07T01:43:11;1.26;;;0.98;;
14663;SDS011;7419;52.184;5.944;2023-04-07T01:44:12;0.93;;;0.89;;
14663;SDS011;7419;52.184;5.944;2023-04-07T01:45:12;1.76;;;1.25;;
14663;SDS011;7419;52.184;5.944;2023-04-07T01:46:12;2.71;;;1.54;;
14663;SDS011;7419;52.184;5.944;2023-04-07T01:47:12;1.67;;;1.04;;
14663;SDS011;7419;52.184;5.944;2023-04-07T01:48:12;2.79;;;1.36;;
14663;SDS011;7419;52.184;5.944;2023-04-07T01:49:12;4.18;;;1.60;;
14663;SDS011;7419;52.184;5.944;2023-04-07T01:50:12;2.17;;;1.27;;
14663;SDS011;7419;52.184;5.944;2023-04-07T01:51:12;1.90;;;1.14;;
14663;SDS011;7419;52.184;5.944;2023-04-07T01:52:12;1.69;;;1.00;;
14663;SDS011;7419;52.184;5.944;2023-04-07T01:53:12;2.51;;;1.21;;
14663;SDS011;7419;52.184;5.944;2023-04-07T01:54:12;1.66;;;0.77;;
14663;SDS011;7419;52.184;5.944;2023-04-07T01:55:12;1.59;;;1.11;;
14663;SDS011;7419;52.184;5.944;2023-04-07T01:56:12;1.16;;;1.03;;
14663;SDS011;7419;52.184;5.944;2023-04-07T01:57:12;2.84;;;1.22;;
14663;SDS011;7419;52.184;5.944;2023-04-07T01:58:12;2.48;;;1.03;;
14663;SDS011;7419;52.184;5.944;2023-04-07T01:59:12;3.07;;;0.93;;
14663;SDS011;7419;52.184;5.944;2023-04-07T02:00:13;3.89;;;1.24;;
14663;SDS011;7419;52.184;5.944;2023-04-07T02:01:13;3.07;;;1.11;;
14663;SDS011;7419;52.184;5.944;2023-04-07T02:02:13;2.23;;;1.21;;
14663;SDS011;7419;52.184;5.944;2023-04-07T02:03:14;1.44;;;1.11;;
14663;SDS011;7419;52.184;5.944;2023-04-07T02:04:14;2.13;;;0.86;;
14663;SDS011;7419;52.184;5.944;2023-04-07T02:05:14;1.84;;;0.95;;
14663;SDS011;7419;52.184;5.944;2023-04-07T02:06:14;1.70;;;1.07;;
14663;SDS011;7419;52.184;5.944;2023-04-07T02:07:14;1.57;;;0.97;;
14663;SDS011;7419;52.184;5.944;2023-04-07T02:08:13;2.17;;;1.31;;
14663;SDS011;7419;52.184;5.944;2023-04-07T02:09:14;2.65;;;1.04;;
14663;SDS011;7419;52.184;5.944;2023-04-07T02:10:14;3.84;;;1.72;;
14663;SDS011;7419;52.184;5.944;2023-04-07T02:11:13;0.93;;;0.88;;
14663;SDS011;7419;52.184;5.944;2023-04-07T02:12:13;2.78;;;1.09;;
14663;SDS011;7419;52.184;5.944;2023-04-07T02:13:14;1.97;;;0.88;;
14663;SDS011;7419;52.184;5.944;2023-04-07T02:14:14;1.87;;;1.23;;
14663;SDS011;7419;52.184;5.944;2023-04-07T02:15:14;3.18;;;1.01;;
14663;SDS011;7419;52.184;5.944;2023-04-07T02:16:14;4.78;;;1.01;;
14663;SDS011;7419;52.184;5.944;2023-04-07T02:17:14;5.12;;;1.53;;
14663;SDS011;7419;52.184;5.944;2023-04-07T02:18:14;2.56;;;1.43;;
14663;SDS011;7419;52.184;5.944;2023-04-07T02:19:14;2.05;;;1.71;;
14663;SDS011;7419;52.184;5.944;2023-04-07T02:20:14;1.71;;;1.47;;
14663;SDS011;7419;52.184;5.944;2023-04-07T02:21:14;3.18;;;1.00;;
14663;SDS011;7419;52.184;5.944;2023-04-07T02:22:14;2.16;;;1.29;;
14663;SDS011;7419;52.184;5.944;2023-04-07T02:23:14;3.32;;;1.51;;
14663;SDS011;7419;52.184;5.944;2023-04-07T02:24:17;1.64;;;1.31;;
14663;SDS011;7419;52.184;5.944;2023-04-07T02:25:22;4.39;;;2.05;;
14663;SDS011;7419;52.184;5.944;2023-04-07T02:26:14;2.86;;;1.51;;
14663;SDS011;7419;52.184;5.944;2023-04-07T02:27:14;2.04;;;1.41;;
14663;SDS011;7419;52.184;5.944;2023-04-07T02:28:14;5.39;;;1.60;;
14663;SDS011;7419;52.184;5.944;2023-04-07T02:29:14;3.14;;;1.37;;
14663;SDS011;7419;52.184;5.944;2023-04-07T02:30:15;3.13;;;1.74;;
14663;SDS011;7419;52.184;5.944;2023-04-07T02:31:15;4.41;;;1.56;;
14663;SDS011;7419;52.184;5.944;2023-04-07T02:32:15;1.97;;;1.67;;
14663;SDS011;7419;52.184;5.944;2023-04-07T02:33:15;4.14;;;1.61;;
14663;SDS011;7419;52.184;5.944;2023-04-07T02:34:15;2.11;;;1.39;;
14663;SDS011;7419;52.184;5.944;2023-04-07T02:35:15;3.73;;;1.91;;
14663;SDS011;7419;52.184;5.944;2023-04-07T02:36:15;1.94;;;1.53;;
14663;SDS011;7419;52.184;5.944;2023-04-07T02:37:16;2.85;;;1.93;;
14663;SDS011;7419;52.184;5.944;2023-04-07T02:38:15;3.95;;;1.98;;
14663;SDS011;7419;52.184;5.944;2023-04-07T02:39:15;3.79;;;1.63;;
14663;SDS011;7419;52.184;5.944;2023-04-07T02:40:15;6.24;;;2.41;;
14663;SDS011;7419;52.184;5.944;2023-04-07T02:41:15;3.59;;;1.82;;
14663;SDS011;7419;52.184;5.944;2023-04-07T02:42:15;4.64;;;1.84;;
14663;SDS011;7419;52.184;5.944;2023-04-07T02:43:15;2.72;;;1.52;;
14663;SDS011;7419;52.184;5.944;2023-04-07T02:44:15;4.50;;;2.45;;
14663;SDS011;7419;52.184;5.944;2023-04-07T02:45:15;3.17;;;1.81;;
14663;SDS011;7419;52.184;5.944;2023-04-07T02:46:15;2.98;;;1.74;;
14663;SDS011;7419;52.184;5.944;2023-04-07T02:47:15;5.38;;;1.78;;
14663;SDS011;7419;52.184;5.944;2023-04-07T02:48:15;5.32;;;2.11;;
14663;SDS011;7419;52.184;5.944;2023-04-07T02:49:15;4.20;;;1.95;;
14663;SDS011;7419;52.184;5.944;2023-04-07T02:50:16;2.88;;;2.11;;
14663;SDS011;7419;52.184;5.944;2023-04-07T02:51:16;5.70;;;2.25;;
14663;SDS011;7419;52.184;5.944;2023-04-07T02:52:16;5.42;;;1.58;;
14663;SDS011;7419;52.184;5.944;2023-04-07T02:53:16;5.85;;;2.24;;
14663;SDS011;7419;52.184;5.944;2023-04-07T02:54:16;2.51;;;1.86;;
14663;SDS011;7419;52.184;5.944;2023-04-07T02:55:16;2.58;;;1.58;;
14663;SDS011;7419;52.184;5.944;2023-04-07T02:56:16;2.78;;;2.14;;
14663;SDS011;7419;52.184;5.944;2023-04-07T02:57:16;5.28;;;2.05;;
14663;SDS011;7419;52.184;5.944;2023-04-07T02:58:16;6.16;;;2.17;;
14663;SDS011;7419;52.184;5.944;2023-04-07T02:59:16;3.87;;;2.30;;
14663;SDS011;7419;52.184;5.944;2023-04-07T03:00:16;3.75;;;1.77;;
14663;SDS011;7419;52.184;5.944;2023-04-07T03:01:16;3.96;;;2.32;;
14663;SDS011;7419;52.184;5.944;2023-04-07T03:02:16;4.73;;;1.74;;
14663;SDS011;7419;52.184;5.944;2023-04-07T03:03:16;6.89;;;2.70;;
14663;SDS011;7419;52.184;5.944;2023-04-07T03:04:17;3.35;;;2.02;;
14663;SDS011;7419;52.184;5.944;2023-04-07T03:05:17;5.18;;;2.17;;
14663;SDS011;7419;52.184;5.944;2023-04-07T03:06:17;2.50;;;1.28;;
14663;SDS011;7419;52.184;5.944;2023-04-07T03:07:17;2.62;;;1.67;;
14663;SDS011;7419;52.184;5.944;2023-04-07T03:08:17;4.03;;;2.00;;
14663;SDS011;7419;52.184;5.944;2023-04-07T03:09:17;2.81;;;2.16;;
14663;SDS011;7419;52.184;5.944;2023-04-07T03:10:17;5.81;;;2.27;;
14663;SDS011;7419;52.184;5.944;2023-04-07T03:11:17;5.96;;;1.85;;
14663;SDS011;7419;52.184;5.944;2023-04-07T03:12:17;2.29;;;1.67;;
14663;SDS011;7419;52.184;5.944;2023-04-07T03:13:17;4.14;;;2.04;;
14663;SDS011;7419;52.184;5.944;2023-04-07T03:14:17;2.12;;;1.50;;
14663;SDS011;7419;52.184;5.944;2023-04-07T03:15:17;3.91;;;2.28;;
14663;SDS011;7419;52.184;5.944;2023-04-07T03:16:17;3.01;;;1.88;;
14663;SDS011;7419;52.184;5.944;2023-04-07T03:17:17;2.68;;;1.88;;
14663;SDS011;7419;52.184;5.944;2023-04-07T03:18:17;4.88;;;1.34;;
14663;SDS011;7419;52.184;5.944;2023-04-07T03:19:17;4.07;;;1.83;;
14663;SDS011;7419;52.184;5.944;2023-04-07T03:20:18;6.12;;;1.15;;
14663;SDS011;7419;52.184;5.944;2023-04-07T03:21:18;3.36;;;1.77;;
14663;SDS011;7419;52.184;5.944;2023-04-07T03:22:18;4.44;;;1.94;;
14663;SDS011;7419;52.184;5.944;2023-04-07T03:23:18;2.74;;;1.56;;
14663;SDS011;7419;52.184;5.944;2023-04-07T03:24:18;2.63;;;1.73;;
14663;SDS011;7419;52.184;5.944;2023-04-07T03:25:18;2.16;;;1.57;;
14663;SDS011;7419;52.184;5.944;2023-04-07T03:26:18;2.85;;;1.53;;
14663;SDS011;7419;52.184;5.944;2023-04-07T03:27:18;2.05;;;1.60;;
14663;SDS011;7419;52.184;5.944;2023-04-07T03:28:18;3.12;;;1.65;;
14663;SDS011;7419;52.184;5.944;2023-04-07T03:29:18;5.55;;;1.78;;
14663;SDS011;7419;52.184;5.944;2023-04-07T03:30:18;6.94;;;1.88;;
14663;SDS011;7419;52.184;5.944;2023-04-07T03:31:18;3.45;;;1.78;;
14663;SDS011;7419;52.184;5.944;2023-04-07T03:32:18;3.36;;;1.53;;
14663;SDS011;7419;52.184;5.944;2023-04-07T03:33:18;2.24;;;1.66;;
14663;SDS011;7419;52.184;5.944;2023-04-07T03:34:18;4.40;;;1.56;;
14663;SDS011;7419;52.184;5.944;2023-04-07T03:35:19;4.63;;;1.78;;
14663;SDS011;7419;52.184;5.944;2023-04-07T03:36:19;4.13;;;1.66;;
14663;SDS011;7419;52.184;5.944;2023-04-07T03:37:19;3.17;;;1.40;;
14663;SDS011;7419;52.184;5.944;2023-04-07T03:38:19;3.37;;;1.46;;
14663;SDS011;7419;52.184;5.944;2023-04-07T03:39:19;1.61;;;1.28;;
14663;SDS011;7419;52.184;5.944;2023-04-07T03:40:19;6.34;;;1.66;;
14663;SDS011;7419;52.184;5.944;2023-04-07T03:41:19;2.60;;;1.56;;
14663;SDS011;7419;52.184;5.944;2023-04-07T03:42:19;2.40;;;1.66;;
14663;SDS011;7419;52.184;5.944;2023-04-07T03:43:19;3.46;;;1.57;;
14663;SDS011;7419;52.184;5.944;2023-04-07T03:44:19;3.79;;;1.72;;
14663;SDS011;7419;52.184;5.944;2023-04-07T03:45:19;6.48;;;2.22;;
14663;SDS011;7419;52.184;5.944;2023-04-07T03:46:19;3.79;;;1.77;;
14663;SDS011;7419;52.184;5.944;2023-04-07T03:47:19;1.47;;;1.23;;
14663;SDS011;7419;52.184;5.944;2023-04-07T03:48:19;4.48;;;1.64;;
14663;SDS011;7419;52.184;5.944;2023-04-07T03:49:20;6.54;;;1.42;;
14663;SDS011;7419;52.184;5.944;2023-04-07T03:50:20;2.98;;;1.79;;
14663;SDS011;7419;52.184;5.944;2023-04-07T03:51:20;2.32;;;1.28;;
14663;SDS011;7419;52.184;5.944;2023-04-07T03:52:20;2.67;;;1.50;;
14663;SDS011;7419;52.184;5.944;2023-04-07T03:53:20;4.21;;;2.01;;
14663;SDS011;7419;52.184;5.944;2023-04-07T03:54:20;4.89;;;1.85;;
14663;SDS011;7419;52.184;5.944;2023-04-07T03:55:20;4.79;;;1.64;;
14663;SDS011;7419;52.184;5.944;2023-04-07T03:56:20;2.77;;;1.64;;
14663;SDS011;7419;52.184;5.944;2023-04-07T03:57:20;4.20;;;2.09;;
14663;SDS011;7419;52.184;5.944;2023-04-07T03:58:20;3.19;;;1.61;;
14663;SDS011;7419;52.184;5.944;2023-04-07T03:59:20;2.95;;;1.33;;
14663;SDS011;7419;52.184;5.944;2023-04-07T04:00:20;2.63;;;1.61;;
14663;SDS011;7419;52.184;5.944;2023-04-07T04:01:20;3.11;;;1.79;;
14663;SDS011;7419;52.184;5.944;2023-04-07T04:02:20;3.28;;;1.65;;
14663;SDS011;7419;52.184;5.944;2023-04-07T04:03:20;3.94;;;1.92;;
14663;SDS011;7419;52.184;5.944;2023-04-07T04:04:20;3.62;;;1.36;;
14663;SDS011;7419;52.184;5.944;2023-04-07T04:05:21;1.95;;;1.71;;
14663;SDS011;7419;52.184;5.944;2023-04-07T04:06:21;1.43;;;1.24;;
14663;SDS011;7419;52.184;5.944;2023-04-07T04:07:21;4.63;;;1.48;;
14663;SDS011;7419;52.184;5.944;2023-04-07T04:08:21;6.68;;;1.70;;
14663;SDS011;7419;52.184;5.944;2023-04-07T04:09:21;4.34;;;1.82;;
14663;SDS011;7419;52.184;5.944;2023-04-07T04:10:21;2.61;;;1.43;;
14663;SDS011;7419;52.184;5.944;2023-04-07T04:11:21;3.21;;;1.63;;
14663;SDS011;7419;52.184;5.944;2023-04-07T04:12:21;2.98;;;1.39;;
14663;SDS011;7419;52.184;5.944;2023-04-07T04:13:21;5.81;;;2.02;;
14663;SDS011;7419;52.184;5.944;2023-04-07T04:14:21;4.94;;;2.04;;
14663;SDS011;7419;52.184;5.944;2023-04-07T04:15:21;2.65;;;1.35;;
14663;SDS011;7419;52.184;5.944;2023-04-07T04:16:21;5.05;;;1.45;;
14663;SDS011;7419;52.184;5.944;2023-04-07T04:17:21;2.75;;;1.44;;
14663;SDS011;7419;52.184;5.944;2023-04-07T04:18:21;3.95;;;1.81;;
14663;SDS011;7419;52.184;5.944;2023-04-07T04:19:21;3.72;;;1.40;;
14663;SDS011;7419;52.184;5.944;2023-04-07T04:20:22;2.83;;;1.55;;
14663;SDS011;7419;52.184;5.944;2023-04-07T04:21:22;2.94;;;1.40;;
14663;SDS011;7419;52.184;5.944;2023-04-07T04:22:22;5.01;;;1.42;;
14663;SDS011;7419;52.184;5.944;2023-04-07T04:23:22;3.94;;;1.45;;
14663;SDS011;7419;52.184;5.944;2023-04-07T04:24:22;4.23;;;1.72;;
14663;SDS011;7419;52.184;5.944;2023-04-07T04:25:22;2.46;;;1.53;;
14663;SDS011;7419;52.184;5.944;2023-04-07T04:26:22;6.13;;;1.76;;
14663;SDS011;7419;52.184;5.944;2023-04-07T04:27:22;5.08;;;1.44;;
14663;SDS011;7419;52.184;5.944;2023-04-07T04:28:22;4.91;;;1.61;;
14663;SDS011;7419;52.184;5.944;2023-04-07T04:29:22;6.52;;;2.09;;
14663;SDS011;7419;52.184;5.944;2023-04-07T04:30:22;5.21;;;1.90;;
14663;SDS011;7419;52.184;5.944;2023-04-07T04:31:22;4.95;;;2.07;;
14663;SDS011;7419;52.184;5.944;2023-04-07T04:32:22;7.43;;;1.49;;
14663;SDS011;7419;52.184;5.944;2023-04-07T04:33:22;6.65;;;1.75;;
14663;SDS011;7419;52.184;5.944;2023-04-07T04:34:22;3.60;;;1.57;;
14663;SDS011;7419;52.184;5.944;2023-04-07T04:35:22;2.79;;;1.40;;
14663;SDS011;7419;52.184;5.944;2023-04-07T04:36:22;5.94;;;1.97;;
14663;SDS011;7419;52.184;5.944;2023-04-07T04:37:23;2.43;;;1.81;;
14663;SDS011;7419;52.184;5.944;2023-04-07T04:38:23;4.04;;;2.04;;
14663;SDS011;7419;52.184;5.944;2023-04-07T04:39:23;5.19;;;1.78;;
14663;SDS011;7419;52.184;5.944;2023-04-07T04:40:23;3.36;;;1.77;;
14663;SDS011;7419;52.184;5.944;2023-04-07T04:41:23;3.91;;;1.66;;
14663;SDS011;7419;52.184;5.944;2023-04-07T04:42:23;6.67;;;2.34;;
14663;SDS011;7419;52.184;5.944;2023-04-07T04:43:23;2.19;;;1.48;;
14663;SDS011;7419;52.184;5.944;2023-04-07T04:44:23;4.17;;;1.56;;
14663;SDS011;7419;52.184;5.944;2023-04-07T04:45:23;7.11;;;1.85;;
14663;SDS011;7419;52.184;5.944;2023-04-07T04:46:23;2.41;;;2.07;;
14663;SDS011;7419;52.184;5.944;2023-04-07T04:47:23;3.38;;;1.62;;
14663;SDS011;7419;52.184;5.944;2023-04-07T04:48:23;2.24;;;1.12;;
14663;SDS011;7419;52.184;5.944;2023-04-07T04:49:23;4.91;;;1.88;;
14663;SDS011;7419;52.184;5.944;2023-04-07T04:50:23;9.74;;;2.09;;
14663;SDS011;7419;52.184;5.944;2023-04-07T04:51:23;2.10;;;1.70;;
14663;SDS011;7419;52.184;5.944;2023-04-07T04:52:23;1.64;;;1.45;;
14663;SDS011;7419;52.184;5.944;2023-04-07T04:53:23;6.81;;;1.99;;
14663;SDS011;7419;52.184;5.944;2023-04-07T04:54:24;4.35;;;1.74;;
14663;SDS011;7419;52.184;5.944;2023-04-07T04:55:24;2.84;;;1.40;;
14663;SDS011;7419;52.184;5.944;2023-04-07T04:56:24;3.18;;;1.77;;
14663;SDS011;7419;52.184;5.944;2023-04-07T04:57:24;3.55;;;1.62;;
14663;SDS011;7419;52.184;5.944;2023-04-07T04:58:24;4.50;;;1.78;;
14663;SDS011;7419;52.184;5.944;2023-04-07T04:59:24;4.22;;;1.54;;
14663;SDS011;7419;52.184;5.944;2023-04-07T05:00:24;5.92;;;2.16;;
14663;SDS011;7419;52.184;5.944;2023-04-07T05:01:24;4.08;;;1.59;;
14663;SDS011;7419;52.184;5.944;2023-04-07T05:02:24;4.94;;;1.50;;
14663;SDS011;7419;52.184;5.944;2023-04-07T05:03:25;3.06;;;1.76;;
14663;SDS011;7419;52.184;5.944;2023-04-07T05:04:24;5.40;;;1.83;;
14663;SDS011;7419;52.184;5.944;2023-04-07T05:05:24;3.82;;;1.76;;
14663;SDS011;7419;52.184;5.944;2023-04-07T05:06:24;6.01;;;2.05;;
14663;SDS011;7419;52.184;5.944;2023-04-07T05:07:24;2.27;;;1.25;;
14663;SDS011;7419;52.184;5.944;2023-04-07T05:08:24;3.17;;;1.60;;
14663;SDS011;7419;52.184;5.944;2023-04-07T05:09:25;3.33;;;1.90;;
14663;SDS011;7419;52.184;5.944;2023-04-07T05:10:25;3.67;;;1.61;;
14663;SDS011;7419;52.184;5.944;2023-04-07T05:11:25;3.98;;;1.88;;
14663;SDS011;7419;52.184;5.944;2023-04-07T05:12:25;3.03;;;1.68;;
14663;SDS011;7419;52.184;5.944;2023-04-07T05:13:25;5.00;;;1.30;;
14663;SDS011;7419;52.184;5.944;2023-04-07T05:14:25;4.35;;;1.54;;
14663;SDS011;7419;52.184;5.944;2023-04-07T05:15:25;2.75;;;1.92;;
14663;SDS011;7419;52.184;5.944;2023-04-07T05:16:25;5.56;;;1.66;;
14663;SDS011;7419;52.184;5.944;2023-04-07T05:17:25;5.26;;;1.94;;
14663;SDS011;7419;52.184;5.944;2023-04-07T05:18:25;3.15;;;1.97;;
14663;SDS011;7419;52.184;5.944;2023-04-07T05:19:25;6.35;;;1.99;;
14663;SDS011;7419;52.184;5.944;2023-04-07T05:20:25;4.40;;;1.82;;
14663;SDS011;7419;52.184;5.944;2023-04-07T05:21:25;3.45;;;1.79;;
14663;SDS011;7419;52.184;5.944;2023-04-07T05:22:25;4.25;;;1.61;;
14663;SDS011;7419;52.184;5.944;2023-04-07T05:23:25;6.46;;;1.99;;
14663;SDS011;7419;52.184;5.944;2023-04-07T05:24:27;5.96;;;2.16;;
14663;SDS011;7419;52.184;5.944;2023-04-07T05:25:26;3.34;;;2.36;;
14663;SDS011;7419;52.184;5.944;2023-04-07T05:26:26;2.40;;;1.57;;
14663;SDS011;7419;52.184;5.944;2023-04-07T05:27:26;6.26;;;1.51;;
14663;SDS011;7419;52.184;5.944;2023-04-07T05:28:26;4.16;;;1.94;;
14663;SDS011;7419;52.184;5.944;2023-04-07T05:29:26;4.52;;;1.96;;
14663;SDS011;7419;52.184;5.944;2023-04-07T05:30:26;5.10;;;2.17;;
14663;SDS011;7419;52.184;5.944;2023-04-07T05:31:26;4.15;;;2.26;;
14663;SDS011;7419;52.184;5.944;2023-04-07T05:32:26;4.19;;;1.53;;
14663;SDS011;7419;52.184;5.944;2023-04-07T05:33:26;5.24;;;2.27;;
14663;SDS011;7419;52.184;5.944;2023-04-07T05:34:26;5.58;;;2.42;;
14663;SDS011;7419;52.184;5.944;2023-04-07T05:35:26;3.85;;;1.82;;
14663;SDS011;7419;52.184;5.944;2023-04-07T05:36:26;5.09;;;2.00;;
14663;SDS011;7419;52.184;5.944;2023-04-07T05:37:26;3.92;;;1.77;;
14663;SDS011;7419;52.184;5.944;2023-04-07T05:38:26;3.74;;;1.66;;
14663;SDS011;7419;52.184;5.944;2023-04-07T05:40:35;4.69;;;2.33;;
14663;SDS011;7419;52.184;5.944;2023-04-07T05:41:35;2.30;;;1.49;;
14663;SDS011;7419;52.184;5.944;2023-04-07T05:42:35;3.11;;;2.17;;
14663;SDS011;7419;52.184;5.944;2023-04-07T05:43:35;4.42;;;2.10;;
14663;SDS011;7419;52.184;5.944;2023-04-07T05:44:35;4.26;;;2.39;;
14663;SDS011;7419;52.184;5.944;2023-04-07T05:45:35;2.66;;;1.76;;
14663;SDS011;7419;52.184;5.944;2023-04-07T05:46:35;2.42;;;1.84;;
14663;SDS011;7419;52.184;5.944;2023-04-07T05:47:35;4.07;;;1.52;;
14663;SDS011;7419;52.184;5.944;2023-04-07T05:48:35;4.52;;;2.00;;
14663;SDS011;7419;52.184;5.944;2023-04-07T05:49:35;2.69;;;1.79;;
14663;SDS011;7419;52.184;5.944;2023-04-07T05:50:35;3.94;;;1.96;;
14663;SDS011;7419;52.184;5.944;2023-04-07T05:51:35;9.94;;;1.96;;
14663;SDS011;7419;52.184;5.944;2023-04-07T05:52:35;5.30;;;2.40;;
14663;SDS011;7419;52.184;5.944;2023-04-07T05:53:35;3.35;;;1.89;;
14663;SDS011;7419;52.184;5.944;2023-04-07T05:54:36;4.14;;;2.27;;
14663;SDS011;7419;52.184;5.944;2023-04-07T05:55:36;4.36;;;1.83;;
14663;SDS011;7419;52.184;5.944;2023-04-07T05:56:36;3.35;;;2.02;;
14663;SDS011;7419;52.184;5.944;2023-04-07T05:57:36;2.50;;;1.55;;
14663;SDS011;7419;52.184;5.944;2023-04-07T05:58:36;3.39;;;2.10;;
14663;SDS011;7419;52.184;5.944;2023-04-07T05:59:36;5.19;;;1.63;;
14663;SDS011;7419;52.184;5.944;2023-04-07T06:00:36;8.56;;;2.17;;
14663;SDS011;7419;52.184;5.944;2023-04-07T06:01:36;4.93;;;2.24;;
14663;SDS011;7419;52.184;5.944;2023-04-07T06:02:36;3.56;;;1.83;;
14663;SDS011;7419;52.184;5.944;2023-04-07T06:03:36;3.71;;;1.77;;
14663;SDS011;7419;52.184;5.944;2023-04-07T06:04:36;3.47;;;1.97;;
14663;SDS011;7419;52.184;5.944;2023-04-07T06:05:36;3.70;;;2.07;;
14663;SDS011;7419;52.184;5.944;2023-04-07T06:06:36;6.62;;;2.23;;
14663;SDS011;7419;52.184;5.944;2023-04-07T06:07:36;4.58;;;2.28;;
14663;SDS011;7419;52.184;5.944;2023-04-07T06:08:36;4.18;;;1.85;;